Time;durP1;ratioP1;P1;durP2;ratioP2;P2;SDS_P1;SDS_P2;PMS_P1;PMS_P2;Temp;Humidity;BMP_temperature;BMP_pressure;BME280_temperature;BME280_humidity;BME280_pressure;Samples;Min_cycle;Max_cycle;Signal;HPM_P1;HPM_P2
2020/12/22 00:00:17;;;;;;;2.83;2.63;;;11.40;57.30;;;;;;5050777;28;20259;-68
2020/12/22 00:02:44;;;;;;;3.80;2.97;;;11.50;57.20;;;;;;5050532;28;20203;-67
2020/12/22 00:05:10;;;;;;;2.10;2.00;;;11.40;56.90;;;;;;5050456;28;20198;-68
2020/12/22 00:07:36;;;;;;;3.13;2.90;;;11.50;57.50;;;;;;5050151;28;20772;-68
2020/12/22 00:10:09;;;;;;;2.53;2.37;;;11.50;57.20;;;;;;5050647;28;20402;-67
2020/12/22 00:12:38;;;;;;;2.10;2.00;;;11.60;57.10;;;;;;5050242;28;20180;-67
2020/12/22 00:15:05;;;;;;;2.13;2.03;;;11.70;56.80;;;;;;5049931;28;20421;-66
2020/12/22 00:17:31;;;;;;;3.03;2.73;;;11.60;57.60;;;;;;5048923;28;20553;-67
2020/12/22 00:19:56;;;;;;;3.97;2.33;;;11.70;57.00;;;;;;5049192;28;20501;-67
2020/12/22 00:22:22;;;;;;;2.20;2.10;;;11.80;56.70;;;;;;5049095;28;20527;-67
2020/12/22 00:24:47;;;;;;;2.33;2.23;;;11.80;56.60;;;;;;5049472;28;20179;-66
2020/12/22 00:27:13;;;;;;;2.53;2.43;;;11.70;57.30;;;;;;5049242;28;20610;-67
2020/12/22 00:29:38;;;;;;;2.20;2.10;;;11.70;56.80;;;;;;5049628;28;20164;-65
2020/12/22 00:32:04;;;;;;;3.50;2.10;;;11.80;57.20;;;;;;5050752;28;20168;-66
2020/12/22 00:34:33;;;;;;;2.93;2.10;;;11.70;57.70;;;;;;5050564;28;20202;-67
2020/12/22 00:36:59;;;;;;;2.60;2.40;;;11.70;57.60;;;;;;5050707;28;20203;-66
2020/12/22 00:39:29;;;;;;;2.87;2.70;;;11.70;57.50;;;;;;5050662;28;20420;-67
2020/12/22 00:41:58;;;;;;;2.00;1.90;;;11.70;57.90;;;;;;5051033;28;20932;-66
2020/12/22 00:44:24;;;;;;;2.30;2.20;;;11.80;57.80;;;;;;5050488;28;20545;-67
2020/12/22 00:46:54;;;;;;;2.40;2.23;;;11.80;57.00;;;;;;5050695;28;20406;-67
2020/12/22 00:49:19;;;;;;;2.90;2.70;;;12.00;57.10;;;;;;5050410;28;20415;-67
2020/12/22 00:51:45;;;;;;;2.23;2.13;;;11.90;56.60;;;;;;5050708;28;20770;-67
2020/12/22 00:54:10;;;;;;;2.37;2.27;;;11.90;56.80;;;;;;5050667;28;20282;-67
2020/12/22 00:56:36;;;;;;;2.37;2.27;;;11.90;57.10;;;;;;5050936;28;20168;-67
2020/12/22 00:59:01;;;;;;;2.07;1.97;;;11.80;57.30;;;;;;5050496;28;20168;-67
2020/12/22 01:01:30;;;;;;;2.90;2.17;;;11.80;57.40;;;;;;5050654;28;20251;-66
2020/12/22 01:03:59;;;;;;;2.90;2.70;;;11.90;57.80;;;;;;5050385;28;20208;-67
2020/12/22 01:06:25;;;;;;;2.27;2.17;;;11.80;57.30;;;;;;5050700;28;20783;-67
2020/12/22 01:08:51;;;;;;;1.93;1.83;;;11.90;57.30;;;;;;5050578;28;20421;-67
2020/12/22 01:11:17;;;;;;;2.10;2.00;;;12.00;57.00;;;;;;5050459;28;20411;-67
2020/12/22 01:13:43;;;;;;;2.10;2.00;;;12.00;57.00;;;;;;5050437;28;20219;-67
2020/12/22 01:16:08;;;;;;;2.13;2.03;;;11.80;57.80;;;;;;5050415;28;20917;-67
2020/12/22 01:18:34;;;;;;;2.10;2.00;;;11.80;58.10;;;;;;5050165;28;20520;-67
2020/12/22 01:20:59;;;;;;;2.20;2.10;;;11.80;58.00;;;;;;5054007;28;20259;-67
2020/12/22 01:23:25;;;;;;;2.30;2.20;;;11.80;58.50;;;;;;5053838;28;20804;-67
2020/12/22 01:25:50;;;;;;;2.10;2.00;;;11.80;58.30;;;;;;5053949;28;20168;-66
2020/12/22 01:28:16;;;;;;;1.90;1.80;;;11.70;58.50;;;;;;5053755;28;20175;-67
2020/12/22 01:30:41;;;;;;;2.00;1.90;;;11.90;58.60;;;;;;5053803;28;20168;-67
2020/12/22 01:33:07;;;;;;;2.03;1.93;;;11.90;58.40;;;;;;5053860;28;20200;-67
2020/12/22 01:35:33;;;;;;;1.90;1.70;;;11.80;58.40;;;;;;5053987;28;20656;-67
2020/12/22 01:37:58;;;;;;;1.93;1.70;;;11.80;58.50;;;;;;5053754;28;20174;-67
2020/12/22 01:40:24;;;;;;;1.70;1.60;;;11.80;58.70;;;;;;5053901;28;20411;-66
2020/12/22 01:42:49;;;;;;;1.90;1.80;;;11.80;58.70;;;;;;5053673;28;20751;-66
2020/12/22 01:45:15;;;;;;;1.83;1.77;;;11.90;58.60;;;;;;5053772;28;20172;-67
2020/12/22 01:47:49;;;;;;;2.03;1.93;;;11.90;58.30;;;;;;5053488;28;20221;-67
2020/12/22 01:50:16;;;;;;;1.87;1.77;;;12.00;57.80;;;;;;5053699;28;20413;-67
2020/12/22 01:52:43;;;;;;;3.93;1.50;;;11.90;57.80;;;;;;5053441;28;20809;-66
2020/12/22 01:55:08;;;;;;;1.40;1.40;;;12.10;57.70;;;;;;5053711;28;20421;-66
2020/12/22 01:57:34;;;;;;;1.90;1.57;;;12.00;57.90;;;;;;5053510;28;20501;-67
2020/12/22 02:00:00;;;;;;;1.93;1.83;;;12.10;57.60;;;;;;5053779;28;20172;-67
2020/12/22 02:02:26;;;;;;;1.70;1.70;;;12.10;57.80;;;;;;5053570;28;20642;-67
2020/12/22 02:04:52;;;;;;;1.50;1.47;;;12.10;57.00;;;;;;5053711;28;20187;-67
2020/12/22 02:07:18;;;;;;;1.90;1.80;;;12.10;56.80;;;;;;5053391;28;20402;-67
2020/12/22 02:09:46;;;;;;;1.90;1.80;;;12.10;57.20;;;;;;5053365;28;20419;-67
2020/12/22 02:12:12;;;;;;;1.50;1.50;;;12.10;57.30;;;;;;5053554;28;20901;-67
2020/12/22 02:14:37;;;;;;;1.57;1.50;;;12.10;57.70;;;;;;5053118;28;20434;-67
2020/12/22 02:17:03;;;;;;;1.70;1.60;;;12.10;57.10;;;;;;5053248;28;20179;-66
2020/12/22 02:19:28;;;;;;;1.80;1.70;;;12.20;57.60;;;;;;5053113;28;20192;-67
2020/12/22 02:21:54;;;;;;;1.43;1.40;;;12.10;56.60;;;;;;5053014;28;20815;-67
2020/12/22 02:24:20;;;;;;;1.53;1.53;;;12.00;57.90;;;;;;5052961;28;20261;-67
2020/12/22 02:26:46;;;;;;;1.33;1.33;;;12.10;57.90;;;;;;5053012;28;20255;-66
2020/12/22 02:29:12;;;;;;;1.30;1.30;;;12.20;57.60;;;;;;5053100;28;20418;-67
2020/12/22 02:31:37;;;;;;;4.70;1.60;;;12.30;56.80;;;;;;5052866;28;20464;-67
2020/12/22 02:34:03;;;;;;;1.40;1.40;;;12.20;57.10;;;;;;5052834;28;20188;-67
2020/12/22 02:36:28;;;;;;;1.40;1.40;;;12.30;56.90;;;;;;5052661;28;20180;-67
2020/12/22 02:38:54;;;;;;;1.10;1.10;;;12.30;57.10;;;;;;5052590;28;20204;-67
2020/12/22 02:41:19;;;;;;;1.10;1.10;;;12.30;56.70;;;;;;5052827;28;20180;-67
2020/12/22 02:43:45;;;;;;;1.10;1.10;;;12.30;56.80;;;;;;5052619;28;20634;-67
2020/12/22 02:46:11;;;;;;;2.80;1.43;;;12.40;56.90;;;;;;5052566;28;20176;-67
2020/12/22 02:48:37;;;;;;;1.47;1.47;;;12.40;56.70;;;;;;5052938;28;20172;-66
2020/12/22 02:51:02;;;;;;;1.37;1.37;;;12.40;56.30;;;;;;5052624;28;20411;-67
2020/12/22 02:53:28;;;;;;;1.00;1.00;;;12.50;56.60;;;;;;5052368;28;20191;-67
2020/12/22 02:55:54;;;;;;;0.97;0.97;;;12.50;56.40;;;;;;5052417;28;20535;-67
2020/12/22 02:58:20;;;;;;;1.10;1.10;;;12.50;56.20;;;;;;5052174;28;20225;-67
2020/12/22 03:00:45;;;;;;;1.13;1.13;;;12.50;56.20;;;;;;5052381;28;20198;-66
2020/12/22 03:03:12;;;;;;;1.10;1.10;;;12.60;55.90;;;;;;5052062;28;20470;-66
2020/12/22 03:05:37;;;;;;;1.30;1.30;;;12.60;56.20;;;;;;5052237;28;20176;-67
2020/12/22 03:08:04;;;;;;;1.30;1.30;;;12.60;56.50;;;;;;5051778;28;20406;-67
2020/12/22 03:10:30;;;;;;;1.40;1.40;;;12.60;56.30;;;;;;5051027;28;20168;-67
2020/12/22 03:12:56;;;;;;;1.23;1.23;;;12.60;56.40;;;;;;5052048;28;20431;-66
2020/12/22 03:15:21;;;;;;;1.10;1.10;;;12.60;56.20;;;;;;5052013;28;20421;-67
2020/12/22 03:17:47;;;;;;;1.50;1.50;;;12.60;56.20;;;;;;5051810;28;20203;-66
2020/12/22 03:20:14;;;;;;;1.20;1.20;;;12.70;56.50;;;;;;5051887;28;20200;-67
2020/12/22 03:22:43;;;;;;;1.40;1.40;;;12.70;56.40;;;;;;5051534;28;20194;-66
2020/12/22 03:25:11;;;;;;;1.30;1.20;;;12.60;56.60;;;;;;5051859;28;20407;-66
2020/12/22 03:27:37;;;;;;;1.60;1.50;;;12.60;56.80;;;;;;5051590;28;20405;-66
2020/12/22 03:30:05;;;;;;;1.47;1.47;;;12.60;57.10;;;;;;5051641;28;20925;-66
2020/12/22 03:32:30;;;;;;;1.20;1.20;;;12.60;57.30;;;;;;5050352;28;20921;-66
2020/12/22 03:34:56;;;;;;;1.20;1.20;;;12.60;57.40;;;;;;5051752;28;20544;-67
2020/12/22 03:37:21;;;;;;;1.40;1.40;;;12.60;56.90;;;;;;5051587;28;20262;-67
2020/12/22 03:39:48;;;;;;;1.23;1.23;;;12.60;57.30;;;;;;5051496;28;20259;-66
2020/12/22 03:42:14;;;;;;;1.33;1.33;;;12.60;57.20;;;;;;5051032;28;20191;-67
2020/12/22 03:44:39;;;;;;;1.40;1.30;;;12.70;56.80;;;;;;5051329;28;20458;-67
2020/12/22 03:47:05;;;;;;;1.43;1.23;;;12.70;56.80;;;;;;5051300;28;20523;-67
2020/12/22 03:49:31;;;;;;;1.20;1.20;;;12.70;56.50;;;;;;5051575;28;20186;-66
2020/12/22 03:51:56;;;;;;;1.27;1.27;;;12.70;56.50;;;;;;5051560;28;20697;-67
2020/12/22 03:54:22;;;;;;;1.43;1.40;;;12.70;56.70;;;;;;5051338;28;20283;-67
2020/12/22 03:56:47;;;;;;;1.63;1.53;;;12.70;56.70;;;;;;5051352;28;20194;-67
2020/12/22 03:59:13;;;;;;;1.00;1.00;;;12.70;56.60;;;;;;5051429;28;20176;-67
2020/12/22 04:01:38;;;;;;;1.20;1.20;;;12.70;56.70;;;;;;5051500;28;20168;-67
2020/12/22 04:04:04;;;;;;;1.30;1.30;;;12.70;56.50;;;;;;5051464;28;20686;-66
2020/12/22 04:06:29;;;;;;;1.20;1.20;;;12.70;56.50;;;;;;5051289;28;20187;-67
2020/12/22 04:08:55;;;;;;;1.60;1.50;;;12.80;56.00;;;;;;5051106;28;20302;-67
2020/12/22 04:11:21;;;;;;;1.30;1.30;;;12.80;56.10;;;;;;5051022;28;20176;-66
2020/12/22 04:13:47;;;;;;;1.43;1.33;;;12.80;56.10;;;;;;5051010;28;20218;-66
2020/12/22 04:16:13;;;;;;;0.90;0.90;;;12.80;56.00;;;;;;5050977;28;21023;-67
2020/12/22 04:18:38;;;;;;;0.90;0.90;;;12.80;55.70;;;;;;5050819;28;20410;-67
2020/12/22 04:21:04;;;;;;;2.20;1.30;;;12.90;56.00;;;;;;5050868;28;20945;-67
2020/12/22 04:23:29;;;;;;;1.10;1.10;;;12.80;55.90;;;;;;5050571;28;20207;-67
2020/12/22 04:25:55;;;;;;;1.10;1.10;;;12.80;56.20;;;;;;5050728;28;20635;-67
2020/12/22 04:28:20;;;;;;;1.53;1.53;;;12.80;56.00;;;;;;5050544;28;20172;-67
2020/12/22 04:30:46;;;;;;;1.20;1.20;;;12.90;56.00;;;;;;5050678;28;20179;-67
2020/12/22 04:33:12;;;;;;;1.63;1.53;;;13.00;55.30;;;;;;5050624;28;20204;-67
2020/12/22 04:35:40;;;;;;;1.40;1.40;;;13.00;55.20;;;;;;5050579;28;20747;-66
2020/12/22 04:38:07;;;;;;;1.10;1.10;;;13.00;55.10;;;;;;5050458;28;20268;-66
2020/12/22 04:40:34;;;;;;;1.20;1.20;;;13.10;55.40;;;;;;5050746;28;20411;-67
2020/12/22 04:43:00;;;;;;;1.00;1.00;;;13.10;55.00;;;;;;5050360;28;20492;-67
2020/12/22 04:45:29;;;;;;;1.30;1.30;;;13.00;55.10;;;;;;5050509;28;20407;-66
2020/12/22 04:47:56;;;;;;;1.10;1.10;;;13.10;55.90;;;;;;5050300;28;20410;-67
2020/12/22 04:50:22;;;;;;;1.77;1.33;;;12.90;56.20;;;;;;5050473;28;20467;-67
2020/12/22 04:52:50;;;;;;;1.10;1.10;;;13.00;56.00;;;;;;5050622;28;20430;-67
2020/12/22 04:55:17;;;;;;;2.70;1.30;;;13.00;56.30;;;;;;5053029;28;20414;-66
2020/12/22 04:57:54;;;;;;;1.50;1.20;;;13.10;55.80;;;;;;5054198;28;20437;-66
2020/12/22 05:00:19;;;;;;;1.50;1.40;;;13.10;55.70;;;;;;5054171;28;20401;-67
2020/12/22 05:02:45;;;;;;;1.00;1.00;;;13.00;55.80;;;;;;5053993;28;20458;-67
2020/12/22 05:05:12;;;;;;;2.33;1.00;;;13.10;55.80;;;;;;5054269;28;20533;-66
2020/12/22 05:07:39;;;;;;;1.30;1.30;;;13.20;56.00;;;;;;5054032;28;20416;-67
2020/12/22 05:10:09;;;;;;;1.90;1.20;;;13.30;54.40;;;;;;5054134;28;20493;-67
2020/12/22 05:12:36;;;;;;;1.30;1.30;;;13.30;54.40;;;;;;5054043;28;20398;-67
2020/12/22 05:15:03;;;;;;;1.23;1.20;;;13.30;55.00;;;;;;5054100;28;20776;-67
2020/12/22 05:17:29;;;;;;;0.80;0.80;;;13.30;54.80;;;;;;5054010;28;20505;-66
2020/12/22 05:19:55;;;;;;;1.07;1.07;;;13.40;54.40;;;;;;5054069;28;20489;-67
2020/12/22 05:22:22;;;;;;;1.07;1.07;;;13.40;54.40;;;;;;5053864;28;20180;-67
2020/12/22 05:24:50;;;;;;;1.20;1.20;;;13.40;54.70;;;;;;5053817;28;20549;-68
2020/12/22 05:27:19;;;;;;;1.10;1.10;;;13.40;54.40;;;;;;5053665;28;20403;-67
2020/12/22 05:29:46;;;;;;;1.27;1.27;;;13.40;54.40;;;;;;5053887;28;20417;-66
2020/12/22 05:32:15;;;;;;;1.00;1.00;;;13.30;54.90;;;;;;5053942;28;20410;-66
2020/12/22 05:34:42;;;;;;;0.93;0.93;;;13.40;54.60;;;;;;5053574;28;20434;-67
2020/12/22 05:37:08;;;;;;;1.20;1.20;;;13.30;54.80;;;;;;5052623;28;20410;-67
2020/12/22 05:39:38;;;;;;;1.33;1.30;;;13.30;55.30;;;;;;5053551;28;20410;-67
2020/12/22 05:42:14;;;;;;;1.10;1.10;;;13.20;55.50;;;;;;5053467;28;20411;-66
2020/12/22 05:44:50;;;;;;;1.37;1.10;;;13.30;55.10;;;;;;5053221;28;20869;-67
2020/12/22 05:47:19;;;;;;;1.20;1.20;;;13.30;55.00;;;;;;5053296;28;20783;-67
2020/12/22 05:49:52;;;;;;;0.93;0.93;;;13.40;55.20;;;;;;5053439;28;20406;-67
2020/12/22 05:52:23;;;;;;;1.10;1.10;;;13.40;55.10;;;;;;5053403;28;20406;-67
2020/12/22 05:54:50;;;;;;;1.00;1.00;;;13.30;55.60;;;;;;5051925;28;20476;-67
2020/12/22 05:57:23;;;;;;;1.20;1.10;;;13.30;55.70;;;;;;5052696;28;20909;-67
2020/12/22 05:59:50;;;;;;;2.10;1.20;;;13.30;55.60;;;;;;5053387;28;20410;-67
2020/12/22 06:02:32;;;;;;;1.77;1.67;;;13.30;56.00;;;;;;5052988;28;20447;-67
2020/12/22 06:05:02;;;;;;;1.03;1.03;;;13.20;56.30;;;;;;5052541;28;20951;-67
2020/12/22 06:07:28;;;;;;;1.43;1.37;;;13.30;55.70;;;;;;5052840;28;20501;-67
2020/12/22 06:09:57;;;;;;;1.70;1.57;;;13.30;56.00;;;;;;5053025;28;21024;-67
2020/12/22 06:12:24;;;;;;;1.80;1.37;;;13.30;56.00;;;;;;5052781;28;20395;-67
2020/12/22 06:14:52;;;;;;;1.40;1.30;;;13.30;55.90;;;;;;5052909;28;20912;-67
2020/12/22 06:17:19;;;;;;;1.10;1.10;;;13.40;56.00;;;;;;5052788;28;20475;-67
2020/12/22 06:19:45;;;;;;;1.43;1.43;;;13.40;56.00;;;;;;5052790;28;20406;-67
2020/12/22 06:22:13;;;;;;;1.27;1.20;;;13.40;56.20;;;;;;5052680;28;21043;-67
2020/12/22 06:24:40;;;;;;;1.40;1.40;;;13.40;56.00;;;;;;5052652;28;20461;-67
2020/12/22 06:27:07;;;;;;;1.30;1.30;;;13.50;56.00;;;;;;5052887;28;20407;-69
2020/12/22 06:29:34;;;;;;;2.50;1.77;;;13.50;55.80;;;;;;5052696;28;20407;-67
2020/12/22 06:32:21;;;;;;;3.00;2.37;;;13.90;55.50;;;;;;5052589;28;20411;-66
2020/12/22 06:34:47;;;;;;;7.90;2.87;;;14.50;54.00;;;;;;5052593;28;20464;-69
2020/12/22 06:37:12;;;;;;;3.33;1.70;;;15.00;54.70;;;;;;5052448;28;20411;-67
2020/12/22 06:39:49;;;;;;;2.30;2.10;;;15.00;50.90;;;;;;5052600;28;20635;-67
2020/12/22 06:42:30;;;;;;;3.30;2.33;;;15.40;51.10;;;;;;5052186;28;20175;-67
2020/12/22 06:45:16;;;;;;;3.30;1.70;;;15.40;50.70;;;;;;5052402;28;20457;-68
2020/12/22 06:47:41;;;;;;;1.50;1.40;;;15.40;49.90;;;;;;5052060;28;20937;-68
2020/12/22 06:50:07;;;;;;;1.50;1.40;;;15.20;48.50;;;;;;5052223;28;20406;-68
2020/12/22 06:52:35;;;;;;;1.20;1.20;;;14.50;51.10;;;;;;5052189;28;20406;-68
2020/12/22 06:55:06;;;;;;;1.20;1.20;;;14.10;51.80;;;;;;5052067;28;20187;-68
2020/12/22 06:57:49;;;;;;;1.10;1.10;;;14.10;53.00;;;;;;5051867;28;20395;-68
2020/12/22 07:00:27;;;;;;;1.20;1.20;;;13.90;53.40;;;;;;5052027;28;20394;-68
2020/12/22 07:03:13;;;;;;;1.20;1.20;;;13.70;54.30;;;;;;5051839;28;20980;-68
2020/12/22 07:05:40;;;;;;;1.43;1.37;;;13.70;54.60;;;;;;5051616;28;20909;-68
2020/12/22 07:08:06;;;;;;;1.23;1.23;;;13.70;54.70;;;;;;5051573;28;20402;-68
2020/12/22 07:10:43;;;;;;;1.37;1.37;;;13.60;54.50;;;;;;5051745;28;20394;-68
2020/12/22 07:13:09;;;;;;;1.40;1.40;;;13.70;54.60;;;;;;5051737;28;20430;-68
2020/12/22 07:15:37;;;;;;;1.10;1.10;;;13.60;54.60;;;;;;5051704;28;20403;-68
2020/12/22 07:18:10;;;;;;;1.20;1.20;;;13.60;54.80;;;;;;5050551;28;20410;-68
2020/12/22 07:20:39;;;;;;;1.23;1.23;;;13.70;54.70;;;;;;5051550;28;20864;-68
2020/12/22 07:23:05;;;;;;;1.27;1.27;;;13.70;54.70;;;;;;5051292;28;20477;-68
2020/12/22 07:25:31;;;;;;;1.50;1.50;;;13.70;54.60;;;;;;5051375;28;20406;-68
2020/12/22 07:27:57;;;;;;;2.10;1.60;;;13.70;54.30;;;;;;5051319;28;20248;-68
2020/12/22 07:30:23;;;;;;;1.80;1.70;;;13.80;54.20;;;;;;5051444;28;20975;-68
2020/12/22 07:32:52;;;;;;;2.07;1.53;;;13.80;53.50;;;;;;5051155;28;20188;-68
2020/12/22 07:35:18;;;;;;;1.30;1.30;;;13.90;53.50;;;;;;5051351;28;20825;-68
2020/12/22 07:37:43;;;;;;;2.17;1.07;;;13.80;53.70;;;;;;5051077;28;20402;-68
2020/12/22 07:40:09;;;;;;;1.40;1.40;;;13.80;53.60;;;;;;5051491;28;20845;-67
2020/12/22 07:42:35;;;;;;;1.40;1.30;;;13.80;53.70;;;;;;5051131;28;20174;-67
2020/12/22 07:45:07;;;;;;;1.30;1.30;;;13.90;53.30;;;;;;5051599;28;20681;-68
2020/12/22 07:47:35;;;;;;;1.50;1.50;;;13.90;53.80;;;;;;5051105;28;20413;-67
2020/12/22 07:50:16;;;;;;;1.40;1.30;;;13.90;53.10;;;;;;5051135;28;20415;-67
2020/12/22 07:52:55;;;;;;;2.10;1.40;;;13.90;53.30;;;;;;5051430;28;20448;-68
2020/12/22 07:55:21;;;;;;;1.20;1.20;;;13.90;53.30;;;;;;5050919;28;20460;-67
2020/12/22 07:57:47;;;;;;;1.10;1.10;;;13.90;52.70;;;;;;5050701;28;20415;-67
2020/12/22 08:00:13;;;;;;;1.20;1.20;;;13.90;52.90;;;;;;5050982;28;20431;-67
2020/12/22 08:02:39;;;;;;;1.10;1.10;;;13.90;52.70;;;;;;5050850;28;20169;-67
2020/12/22 08:05:14;;;;;;;1.43;1.33;;;14.00;52.60;;;;;;5050884;28;20411;-67
2020/12/22 08:07:44;;;;;;;1.20;1.20;;;14.00;52.30;;;;;;5050449;28;20410;-67
2020/12/22 08:10:14;;;;;;;1.00;1.00;;;13.90;52.50;;;;;;5050671;28;20410;-67
2020/12/22 08:12:40;;;;;;;1.73;1.63;;;13.90;53.10;;;;;;5050698;28;20402;-67
2020/12/22 08:15:07;;;;;;;1.40;1.40;;;14.00;52.50;;;;;;5049285;28;20911;-66
2020/12/22 08:17:43;;;;;;;1.43;1.20;;;14.10;52.60;;;;;;5038996;28;20402;-70
2020/12/22 08:20:09;;;;;;;1.40;1.40;;;14.00;51.80;;;;;;5041001;28;20414;-67
2020/12/22 08:22:41;;;;;;;1.60;1.50;;;14.00;52.60;;;;;;5049846;28;20434;-66
2020/12/22 08:25:07;;;;;;;2.77;1.40;;;14.00;52.80;;;;;;5050427;28;20456;-66
2020/12/22 08:27:33;;;;;;;1.60;1.50;;;14.00;52.40;;;;;;5050454;28;20430;-68
2020/12/22 08:29:59;;;;;;;2.00;1.60;;;14.00;52.40;;;;;;5054676;28;20921;-67
2020/12/22 08:32:25;;;;;;;1.17;1.17;;;14.10;52.20;;;;;;5054427;28;20250;-68
2020/12/22 08:34:53;;;;;;;1.40;1.40;;;14.00;52.40;;;;;;5054615;28;20168;-68
2020/12/22 08:37:26;;;;;;;1.73;1.27;;;14.10;52.60;;;;;;5054331;28;20438;-68
2020/12/22 08:39:52;;;;;;;1.40;1.40;;;14.00;52.60;;;;;;5054731;28;20409;-68
2020/12/22 08:42:19;;;;;;;1.67;1.50;;;14.10;52.40;;;;;;5054108;28;20975;-68
2020/12/22 08:44:52;;;;;;;1.97;1.87;;;14.10;52.80;;;;;;5054315;28;20461;-72
2020/12/22 08:47:20;;;;;;;1.50;1.40;;;14.10;52.60;;;;;;5054573;28;20414;-69
2020/12/22 08:49:48;;;;;;;1.30;1.30;;;14.20;52.50;;;;;;5055128;28;20402;-69
2020/12/22 08:52:15;;;;;;;1.20;1.20;;;14.20;52.40;;;;;;5054578;28;20402;-68
2020/12/22 08:54:45;;;;;;;1.57;1.23;;;14.20;52.20;;;;;;5054359;28;20430;-68
2020/12/22 08:57:14;;;;;;;1.47;1.37;;;14.10;52.60;;;;;;5054129;28;20738;-67
2020/12/22 08:59:39;;;;;;;1.20;1.20;;;14.20;52.30;;;;;;5054370;28;20406;-72
2020/12/22 09:02:05;;;;;;;3.80;1.50;;;14.20;52.30;;;;;;5053981;28;20464;-70
2020/12/22 09:04:32;;;;;;;1.47;1.20;;;14.20;52.50;;;;;;5054035;28;20200;-69
2020/12/22 09:06:59;;;;;;;1.20;1.10;;;14.20;53.10;;;;;;5054032;28;20197;-69
2020/12/22 09:09:32;;;;;;;1.00;1.00;;;14.20;53.20;;;;;;5053850;28;20459;-67
2020/12/22 09:12:10;;;;;;;1.93;1.20;;;14.20;53.30;;;;;;5053959;28;20494;-70
2020/12/22 09:14:43;;;;;;;1.73;1.20;;;14.20;53.40;;;;;;5053788;28;20433;-69
2020/12/22 09:17:09;;;;;;;1.13;1.13;;;14.30;53.10;;;;;;5053722;28;20896;-67
2020/12/22 09:19:42;;;;;;;1.10;1.10;;;14.20;53.80;;;;;;5053801;28;20583;-68
2020/12/22 09:22:08;;;;;;;1.30;1.20;;;14.10;54.20;;;;;;5053603;28;20406;-68
2020/12/22 09:24:33;;;;;;;1.10;1.10;;;14.10;54.10;;;;;;5053561;28;20517;-68
2020/12/22 09:27:02;;;;;;;1.00;1.00;;;14.10;54.40;;;;;;5053669;28;20437;-70
2020/12/22 09:29:28;;;;;;;1.17;1.17;;;14.10;55.00;;;;;;5053468;28;20172;-70
2020/12/22 09:31:55;;;;;;;1.03;1.03;;;14.10;54.70;;;;;;5053664;28;20463;-70
2020/12/22 09:34:25;;;;;;;1.10;1.10;;;14.10;55.00;;;;;;5053670;28;20426;-69
2020/12/22 09:36:56;;;;;;;1.27;1.27;;;14.00;54.90;;;;;;5054109;28;20418;-70
2020/12/22 09:39:23;;;;;;;1.40;1.30;;;14.00;55.50;;;;;;5052855;28;20422;-67
2020/12/22 09:41:48;;;;;;;1.30;1.30;;;14.10;55.40;;;;;;5053052;28;20838;-68
2020/12/22 09:44:14;;;;;;;1.90;1.80;;;14.00;55.80;;;;;;5053423;28;20498;-68
2020/12/22 09:46:40;;;;;;;1.47;1.40;;;14.10;56.30;;;;;;5053288;28;20165;-67
2020/12/22 09:49:06;;;;;;;1.93;1.83;;;14.00;57.40;;;;;;5053164;28;20451;-69
2020/12/22 09:51:31;;;;;;;1.30;1.30;;;14.00;57.00;;;;;;5042800;28;20191;-71
2020/12/22 09:53:57;;;;;;;1.40;1.40;;;14.00;56.80;;;;;;5039114;28;20204;-68
2020/12/22 09:56:23;;;;;;;1.53;1.43;;;14.00;57.10;;;;;;5042975;28;20208;-67
2020/12/22 09:58:48;;;;;;;1.70;1.57;;;14.00;56.50;;;;;;5049194;28;20397;-69
2020/12/22 10:01:14;;;;;;;1.20;1.20;;;14.00;56.90;;;;;;5053269;28;20639;-68
2020/12/22 10:03:39;;;;;;;1.20;1.20;;;14.10;56.70;;;;;;5053042;28;20219;-69
2020/12/22 10:06:05;;;;;;;1.77;1.47;;;14.10;56.20;;;;;;5052812;28;20520;-69
2020/12/22 10:08:30;;;;;;;1.40;1.30;;;14.10;55.50;;;;;;5052721;28;20635;-68
2020/12/22 10:10:56;;;;;;;1.47;1.37;;;14.10;55.50;;;;;;5052919;28;20176;-69
2020/12/22 10:13:21;;;;;;;1.20;1.20;;;14.20;55.10;;;;;;5052972;28;20215;-68
2020/12/22 10:15:47;;;;;;;1.50;1.50;;;14.20;55.10;;;;;;5053039;28;20208;-74
2020/12/22 10:18:13;;;;;;;1.30;1.20;;;14.10;54.80;;;;;;5052858;28;20180;-70
2020/12/22 10:20:39;;;;;;;1.53;1.50;;;14.20;55.10;;;;;;5052591;28;20924;-71
2020/12/22 10:23:04;;;;;;;1.50;1.50;;;14.20;54.70;;;;;;5052285;28;20281;-70
2020/12/22 10:25:30;;;;;;;1.50;1.50;;;14.20;54.10;;;;;;5052345;28;20768;-71
2020/12/22 10:27:56;;;;;;;1.40;1.30;;;14.30;54.20;;;;;;5052153;28;20247;-69
2020/12/22 10:30:22;;;;;;;1.47;1.40;;;14.30;54.10;;;;;;5052092;28;20422;-70
2020/12/22 10:32:48;;;;;;;1.23;1.10;;;14.20;54.10;;;;;;5052308;28;20430;-69
2020/12/22 10:35:13;;;;;;;2.17;1.50;;;14.30;54.00;;;;;;5052286;28;20175;-70
2020/12/22 10:37:39;;;;;;;1.40;1.40;;;14.30;53.70;;;;;;5052220;28;20187;-71
2020/12/22 10:40:04;;;;;;;1.87;1.60;;;14.40;53.50;;;;;;5052334;28;20179;-71
2020/12/22 10:42:30;;;;;;;1.63;1.50;;;14.40;53.30;;;;;;5052268;28;20243;-71
2020/12/22 10:44:56;;;;;;;1.90;1.80;;;14.50;52.70;;;;;;5046110;28;20238;-68
2020/12/22 10:47:21;;;;;;;1.50;1.40;;;14.50;53.10;;;;;;5039655;28;20218;-69
2020/12/22 10:49:48;;;;;;;1.20;1.20;;;14.50;52.70;;;;;;5040551;28;20264;-69
2020/12/22 10:52:14;;;;;;;1.13;1.13;;;14.50;52.40;;;;;;5044834;28;20168;-71
2020/12/22 10:54:39;;;;;;;1.30;1.20;;;14.50;52.50;;;;;;5043596;28;20434;-69
2020/12/22 10:57:05;;;;;;;2.90;1.30;;;14.50;52.70;;;;;;5041563;28;20563;-70
2020/12/22 10:59:31;;;;;;;1.40;1.30;;;14.60;52.50;;;;;;5040488;28;20817;-68
2020/12/22 11:01:58;;;;;;;1.37;1.30;;;14.60;52.30;;;;;;5037537;28;20187;-70
2020/12/22 11:04:24;;;;;;;1.40;1.40;;;14.60;52.40;;;;;;5042882;28;20196;-70
2020/12/22 11:07:00;;;;;;;1.30;1.30;;;14.60;52.40;;;;;;5042741;28;20442;-69
2020/12/22 11:09:26;;;;;;;0.97;0.97;;;14.60;52.20;;;;;;5031230;28;20414;-70
2020/12/22 11:11:51;;;;;;;1.03;1.03;;;14.50;52.20;;;;;;5043635;28;20407;-70
2020/12/22 11:14:17;;;;;;;1.40;1.30;;;14.50;52.70;;;;;;5043937;28;20200;-68
2020/12/22 11:16:42;;;;;;;1.60;1.50;;;14.60;52.70;;;;;;5041941;28;20584;-69
2020/12/22 11:19:08;;;;;;;1.20;1.20;;;14.70;52.50;;;;;;5042629;28;20545;-71
2020/12/22 11:21:34;;;;;;;1.50;1.40;;;14.70;52.40;;;;;;5040260;28;20610;-69
2020/12/22 11:23:59;;;;;;;1.50;1.40;;;14.70;52.00;;;;;;5040183;28;20733;-68
2020/12/22 11:26:25;;;;;;;1.60;1.50;;;14.60;52.80;;;;;;5041135;28;20189;-72
2020/12/22 11:28:51;;;;;;;1.20;1.10;;;14.70;52.10;;;;;;5040182;28;20669;-69
2020/12/22 11:31:17;;;;;;;1.50;1.40;;;14.70;52.00;;;;;;5040939;28;20464;-71
2020/12/22 11:33:43;;;;;;;1.67;1.57;;;14.80;52.00;;;;;;5042164;28;20423;-69
2020/12/22 11:36:14;;;;;;;1.57;1.47;;;14.80;52.20;;;;;;5038770;28;20195;-69
2020/12/22 11:38:40;;;;;;;1.60;1.50;;;14.70;52.30;;;;;;5041471;28;20422;-69
2020/12/22 11:41:06;;;;;;;1.40;1.40;;;14.50;52.60;;;;;;5043325;28;20414;-71
2020/12/22 11:43:32;;;;;;;1.50;1.40;;;14.50;53.00;;;;;;5037878;28;20561;-71
2020/12/22 11:45:58;;;;;;;1.30;1.30;;;14.50;53.50;;;;;;5048669;28;20172;-66
2020/12/22 11:48:24;;;;;;;1.20;1.20;;;14.50;53.60;;;;;;5037856;28;20538;-74
2020/12/22 11:50:54;;;;;;;1.40;1.40;;;14.40;53.90;;;;;;5038124;28;20187;-70
2020/12/22 11:53:20;;;;;;;1.83;1.73;;;14.50;53.60;;;;;;5035924;28;20796;-70
2020/12/22 11:55:45;;;;;;;3.67;2.20;;;14.50;53.80;;;;;;5041444;28;20414;-70
2020/12/22 11:58:11;;;;;;;1.53;1.50;;;14.50;53.50;;;;;;5040144;28;20576;-70
2020/12/22 12:00:36;;;;;;;1.60;1.50;;;14.50;53.50;;;;;;5040828;28;20229;-70
2020/12/22 12:03:02;;;;;;;1.53;1.53;;;14.50;53.70;;;;;;5037260;28;20250;-70
2020/12/22 12:05:27;;;;;;;1.73;1.63;;;14.60;53.60;;;;;;5030064;28;20674;-70
2020/12/22 12:07:53;;;;;;;1.60;1.50;;;14.50;53.70;;;;;;5035548;28;20168;-69
2020/12/22 12:10:18;;;;;;;1.30;1.30;;;14.60;54.20;;;;;;5041744;28;20179;-69
2020/12/22 12:12:44;;;;;;;1.40;1.30;;;14.60;53.60;;;;;;5035804;28;20192;-68
2020/12/22 12:15:09;;;;;;;1.30;1.30;;;14.60;53.60;;;;;;5030819;28;20165;-71
2020/12/22 12:17:35;;;;;;;1.30;1.30;;;14.70;53.80;;;;;;5029277;28;20177;-71
2020/12/22 12:20:00;;;;;;;1.57;1.47;;;14.70;53.60;;;;;;5030686;28;20666;-69
2020/12/22 12:22:26;;;;;;;1.27;1.27;;;14.70;53.70;;;;;;5030457;28;20198;-69
2020/12/22 12:24:52;;;;;;;1.40;1.40;;;14.70;53.50;;;;;;5030818;28;20231;-72
2020/12/22 12:27:17;;;;;;;1.33;1.33;;;14.80;53.00;;;;;;5038588;28;20419;-69
2020/12/22 12:29:43;;;;;;;1.37;1.37;;;14.80;53.30;;;;;;5050648;28;20180;-71
2020/12/22 12:32:08;;;;;;;1.33;1.33;;;14.90;53.30;;;;;;5050554;28;20178;-71
2020/12/22 12:34:34;;;;;;;1.90;1.40;;;14.90;53.40;;;;;;5050301;28;20622;-68
2020/12/22 12:36:59;;;;;;;1.50;1.50;;;14.90;53.60;;;;;;5050392;28;20183;-70
2020/12/22 12:39:25;;;;;;;1.50;1.40;;;14.90;53.60;;;;;;5050580;28;20182;-70
2020/12/22 12:41:50;;;;;;;1.40;1.40;;;14.80;53.90;;;;;;5050605;28;20187;-69
2020/12/22 12:44:17;;;;;;;1.77;1.20;;;14.70;54.80;;;;;;5050390;28;20242;-72
2020/12/22 12:46:43;;;;;;;1.17;1.17;;;14.70;54.90;;;;;;5050350;28;20200;-68